Ship Status Report: callsign BAREU66

sailwx.info

Track history (hours):
 
Tides and Currents Weather Stations Pressure Air Temp Water Temp Dewpoint Dewpoint Depression Visibility Wind Speed Wind Dir Waves Ship Positions

Callsign BAREU66 (name unknown)

Last reported at 2018-Feb-26 02:00 UTC. Time now 2018-Feb-26 03:16 UTC.
Position N 38°00' W 000°18'.

Barometer 1008.2 mb

Date/timePositionNaut miles runAvg speedWind from/ knotsBaromVisibWave heightAir tempDewpointWater temp
2018-Feb-26 02:00N 38°00' W 000°18'2322.9 1008.2
2018-Feb-26 01:00N 38°18' E 000°00'1918.5 1007.9
2018-Feb-26 00:00N 38°30' E 000°18'2020.3 1008.0
2018-Feb-25 23:00N 38°48' E 000°30'2625.7 1008.6
2018-Feb-25 22:00N 39°12' E 000°42'2020.3 1008.0
2018-Feb-25 21:00N 39°30' E 000°54'2020.2 1008.9
2018-Feb-25 20:00N 39°48' E 001°06'2322.7 1008.9
2018-Feb-25 19:00N 40°06' E 001°24'2020.2 1008.6
2018-Feb-25 18:00N 40°24' E 001°36'2020.2 1007.9
2018-Feb-25 17:00N 40°42' E 001°48'2020.2 1007.3
2018-Feb-25 16:00N 41°00' E 002°00'2020.1 1007.3
2018-Feb-25 15:00N 41°18' E 002°12'0 0.0 1008.4
2018-Feb-25 10:00N 41°18' E 002°12'1818.1 1009.3
2018-Feb-25 09:00N 41°30' E 002°30'1918.9 1009.2
2018-Feb-25 08:00N 41°36' E 002°54'2221.6 1008.8
2018-Feb-25 07:00N 41°48' E 003°18'2221.5 1009.0
2018-Feb-25 06:00N 42°00' E 003°42'2121.5 1008.5
2018-Feb-25 05:00N 42°12' E 004°06'2121.4 1007.6
2018-Feb-25 04:00N 42°24' E 004°30'2322.9 1006.5
2018-Feb-25 03:00N 42°30' E 005°00'2525.1 1005.9
2018-Feb-25 02:00N 42°42' E 005°30'1918.6 1005.5
2018-Feb-25 01:00N 42°48' E 005°54'2322.8 1006.3
2018-Feb-25 00:00N 42°54' E 006°24'2121.3 1006.7
2018-Feb-24 23:00N 43°06' E 006°48'2525.1 1006.7
2018-Feb-24 22:00N 43°24' E 007°12'2121.1 1006.9
2018-Feb-24 21:00N 43°36' E 007°36'2524.8 1006.5
2018-Feb-24 20:00N 43°48' E 008°06'1817.7 1007.1
2018-Feb-24 19:00N 44°00' E 008°24'2524.9 1007.3
2018-Feb-24 18:00N 44°18' E 008°48'7 0.7 1006.4
2018-Feb-24 07:00N 44°24' E 008°54'7 7.4 1006.2
2018-Feb-24 06:00N 44°18' E 009°00'2121.0 1003.3
2018-Feb-24 05:00N 44°06' E 008°36'1817.7 1001.4
2018-Feb-24 04:00N 43°54' E 008°18'2121.1 1001.2
2018-Feb-24 03:00N 43°42' E 007°54'1817.7 1003.6
2018-Feb-24 02:00N 43°30' E 007°36'2121.2 1004.5
2018-Feb-24 01:00N 43°18' E 007°12'2121.2
2018-Feb-24 00:00N 43°06' E 006°48'1414.5
2018-Feb-23 23:00N 43°00' E 006°30'2322.8 1005.0
2018-Feb-23 22:00N 42°54' E 006°00'1918.6 1005.5
2018-Feb-23 21:00N 42°48' E 005°36'1918.6 1006.2
2018-Feb-23 20:00N 42°42' E 005°12'1918.6 1005.5
2018-Feb-23 19:00N 42°36' E 004°48'2322.9 1005.5
2018-Feb-23 18:00N 42°30' E 004°18'1918.7 1005.7
2018-Feb-23 17:00N 42°24' E 003°54'1817.9 1005.4
2018-Feb-23 16:00N 42°12' E 003°36'2222.4 1004.4
2018-Feb-23 15:00N 41°54' E 003°18'1818.0 1005.3
2018-Feb-23 14:00N 41°42' E 003°00'2221.6 1006.5
2018-Feb-23 13:00N 41°30' E 002°36'2221.6 1006.6
2018-Feb-23 12:00N 41°18' E 002°12'6 1.2 1007.2
2018-Feb-23 07:00N 41°24' E 002°12'6 6.0 1007.2
2018-Feb-23 06:00N 41°18' E 002°12'2020.1 1006.5
2018-Feb-23 05:00N 41°00' E 002°00'2020.2 1006.4
2018-Feb-23 04:00N 40°42' E 001°48'2020.2 1005.8
2018-Feb-23 03:00N 40°24' E 001°36'1515.1 1005.9
2018-Feb-23 02:00N 40°12' E 001°24'2020.2 1006.6
2018-Feb-23 01:00N 39°54' E 001°12'1918.6 1006.3
2018-Feb-23 00:00N 39°36' E 001°06'2020.2 1006.6
2018-Feb-22 23:00N 39°18' E 000°54'2020.3 1006.7
2018-Feb-22 22:00N 39°00' E 000°42'2020.3 1006.6
2018-Feb-22 21:00N 38°42' E 000°30'1515.2 1006.1
2018-Feb-22 20:00N 38°30' E 000°18'2020.3 1004.9
2018-Feb-22 19:00N 38°12' E 000°06'2322.9 1004.9
2018-Feb-22 18:00N 37°54' W 000°12'1515.3 1005.0
2018-Feb-22 17:00N 37°42' W 000°24'2323.0 1005.2
2018-Feb-22 16:00N 37°24' W 000°42'1918.7 1005.4
2018-Feb-22 15:00N 37°12' W 001°00'1918.7 1005.5
2018-Feb-22 14:00N 37°00' W 001°18'1918.7 1006.2
2018-Feb-22 13:00N 36°48' W 001°36'2323.1 1007.3
2018-Feb-22 12:00N 36°30' W 001°54'2020.2 1008.1
2018-Feb-22 11:00N 36°24' W 002°18'2020.2 1008.6
2018-Feb-22 10:00N 36°18' W 002°42'1919.3 1008.9
2018-Feb-22 09:00N 36°18' W 003°06'2020.3 1009.6
2018-Feb-22 08:00N 36°12' W 003°30'1919.4 1007.8
2018-Feb-22 07:00N 36°12' W 003°54'2525.0 1008.0
2018-Feb-22 06:00N 36°06' W 004°24'1919.4 1007.1
2018-Feb-22 05:00N 36°06' W 004°48'2020.3 1007.6
2018-Feb-22 04:00N 36°00' W 005°12'16 2.3 1007.3
2018-Feb-21 21:00N 35°54' W 005°30'8 7.7 1008.2
2018-Feb-21 20:00N 36°00' W 005°24'1919.4 1006.9
2018-Feb-21 19:00N 36°00' W 005°00'2020.3 1006.5
2018-Feb-21 18:00N 36°06' W 004°36'2525.0 1005.4
2018-Feb-21 17:00N 36°12' W 004°06'1919.4 1004.5
2018-Feb-21 16:00N 36°12' W 003°42'2020.3 1004.5
2018-Feb-21 15:00N 36°18' W 003°18'2424.2 1004.8
2018-Feb-21 14:00N 36°18' W 002°48'2020.2 1005.0
2018-Feb-21 13:00N 36°24' W 002°24'2322.7 1005.5
2018-Feb-21 12:00N 36°36' W 002°00'2322.7 1006.4
2018-Feb-21 11:00N 36°48' W 001°36'1918.7 1006.8
2018-Feb-21 10:00N 37°00' W 001°18'2323.0 1007.0
2018-Feb-21 09:00N 37°18' W 001°00'2322.5 1006.8
2018-Feb-21 08:00N 37°30' W 000°36'2323.0 1005.9
2018-Feb-21 07:00N 37°48' W 000°18'2020.3 1006.4
2018-Feb-21 06:00N 38°06' W 000°06'2020.3 1007.6
2018-Feb-21 05:00N 38°24' E 000°06'2322.9 1007.7
2018-Feb-21 04:00N 38°42' E 000°24'1918.6 1008.2
2018-Feb-21 03:00N 39°00' E 000°30'2625.7 1008.9
2018-Feb-21 02:00N 39°24' E 000°42'1918.6 1009.9
2018-Feb-21 01:00N 39°42' E 000°48'2625.7 1010.0
2018-Feb-21 00:00N 40°06' E 001°00'2322.6 1010.0
2018-Feb-20 23:00N 40°24' E 001°18'2020.2 1008.9
2018-Feb-20 22:00N 40°42' E 001°30'2322.6 1007.2
2018-Feb-20 21:00N 41°00' E 001°48'2221.7 1009.4
2018-Feb-20 20:00N 41°12' E 002°12'8 1.9 1009.2
2018-Feb-20 16:00N 41°18' E 002°18'2221.6 1008.9
2018-Feb-20 15:00N 41°30' E 002°42'2221.6 1009.1
2018-Feb-20 14:00N 41°42' E 003°06'2222.4 1009.6
2018-Feb-20 13:00N 42°00' E 003°24'2222.4 1009.9
2018-Feb-20 12:00N 42°18' E 003°42'1918.7 1007.8
2018-Feb-20 11:00N 42°24' E 004°06'2525.2 1009.6
2018-Feb-20 10:00N 42°36' E 004°36'2322.9 1008.4
2018-Feb-20 09:00N 42°42' E 005°06'1817.6 1007.9
2018-Feb-20 08:00N 42°42' E 005°30'2322.8 1006.6
2018-Feb-20 07:00N 42°48' E 006°00'2525.0 1007.7
2018-Feb-20 06:00N 43°00' E 006°30'2121.2 1008.0
2018-Feb-20 05:00N 43°12' E 006°54'2121.2 1008.1
2018-Feb-20 04:00N 43°24' E 007°18'2121.1 1008.9
2018-Feb-20 03:00N 43°36' E 007°42'2121.1 1009.7
2018-Feb-20 02:00N 43°48' E 008°06'2525.0 1010.3
2018-Feb-20 01:00N 44°06' E 008°30'2121.0 1010.4
2018-Feb-20 00:00N 44°18' E 008°54'6 1.2 1011.5
2018-Feb-19 19:00N 44°24' E 008°54'1212.0 1013.5
2018-Feb-19 18:00N 44°12' E 008°54'2121.0 1011.6
2018-Feb-19 17:00N 44°00' E 008°30'2121.0 1011.3
2018-Feb-19 16:00N 43°48' E 008°06'2121.1 1012.2
2018-Feb-19 15:00N 43°36' E 007°42'1817.7 1013.4
2018-Feb-19 14:00N 43°24' E 007°24'2121.2 1013.8
2018-Feb-19 13:00N 43°12' E 007°00'2121.2 1014.2
2018-Feb-19 12:00N 43°00' E 006°36'2121.3 1015.0
2018-Feb-19 11:00N 42°48' E 006°12'1918.6 1016.6
2018-Feb-19 10:00N 42°42' E 005°48'2322.9 1016.7
2018-Feb-19 09:00N 42°36' E 005°18'2121.4 1016.6
2018-Feb-19 08:00N 42°24' E 004°54'2121.4 1016.5
2018-Feb-19 07:00N 42°12' E 004°30'2323.0 1016.1
2018-Feb-19 06:00N 42°06' E 004°00'2121.5 1015.9
2018-Feb-19 05:00N 41°54' E 003°36'1918.9 1016.1
2018-Feb-19 04:00N 41°48' E 003°12'2221.6 1016.8
2018-Feb-19 03:00N 41°36' E 002°48'2221.6 1016.7
2018-Feb-19 02:00N 41°24' E 002°24'11 2.7 1016.7
2018-Feb-18 22:00N 41°18' E 002°12'1312.8 1019.3
2018-Feb-18 21:00N 41°06' E 002°06'2020.2 1019.0
2018-Feb-18 20:00N 40°48' E 001°54'2020.2 1019.9
2018-Feb-18 19:00N 40°30' E 001°42'2322.6 1020.2
2018-Feb-18 18:00N 40°12' E 001°24'2020.2 1020.4
2018-Feb-18 17:00N 39°54' E 001°12'2625.7 1020.7
2018-Feb-18 16:00N 39°30' E 001°00'2020.3 1020.6
2018-Feb-18 15:00N 39°12' E 000°48'2020.3 1020.8
2018-Feb-18 14:00N 38°54' E 000°36'2020.3 1021.0
2018-Feb-18 13:00N 38°36' E 000°24'2322.9 1021.0
2018-Feb-18 12:00N 38°18' E 000°06'2020.3 1021.5
2018-Feb-18 11:00N 38°00' W 000°06'2322.9 1021.7
2018-Feb-18 10:00N 37°42' W 000°24'2323.0 1021.3
2018-Feb-18 09:00N 37°24' W 000°42'1918.7 1021.0
2018-Feb-18 08:00N 37°12' W 001°00'1918.7 1020.7
2018-Feb-18 07:00N 37°00' W 001°18'2323.1 1020.7
2018-Feb-18 06:00N 36°42' W 001°36'1918.8 1020.2
2018-Feb-18 05:00N 36°30' W 001°54'2322.7 1020.0
2018-Feb-18 04:00N 36°18' W 002°18'2424.2 1019.3
2018-Feb-18 03:00N 36°18' W 002°48'2020.3 1020.0
2018-Feb-18 02:00N 36°12' W 003°12'1919.4 1020.2
2018-Feb-18 01:00N 36°12' W 003°36'2525.0 1020.6
2018-Feb-18 00:00N 36°06' W 004°06'1919.4 1021.2
2018-Feb-17 23:00N 36°06' W 004°30'2525.0 1021.5
2018-Feb-17 22:00N 36°00' W 005°00'1919.4 1022.0
2018-Feb-17 21:00N 36°00' W 005°24'8 1.1 1022.9
2018-Feb-17 14:00N 35°54' W 005°30'1111.4 1022.9
2018-Feb-17 13:00N 36°00' W 005°18'2020.3 1021.0
2018-Feb-17 12:00N 36°06' W 004°54'1919.4 1021.0
2018-Feb-17 11:00N 36°06' W 004°30'2020.3 1021.2
2018-Feb-17 10:00N 36°12' W 004°06'1919.4 1020.9
2018-Feb-17 09:00N 36°12' W 003°42'2524.9 1020.9
2018-Feb-17 08:00N 36°18' W 003°12'1919.3 1021.5
2018-Feb-17 07:00N 36°18' W 002°48'2020.2 1021.1
2018-Feb-17 06:00N 36°24' W 002°24'2020.2 1020.9
2018-Feb-17 05:00N 36°30' W 002°00'2323.1 1020.8
2018-Feb-17 04:00N 36°48' W 001°42'1918.7 1020.4
2018-Feb-17 03:00N 37°00' W 001°24'2626.3 1020.7
2018-Feb-17 02:00N 37°18' W 001°00'1918.7 1021.0
2018-Feb-17 01:00N 37°30' W 000°42'2323.0 1021.3
2018-Feb-17 00:00N 37°48' W 000°24'2020.3 1021.5
2018-Feb-16 23:00N 38°06' W 000°12'1918.5 1021.9
2018-Feb-16 22:00N 38°18' E 000°06'2020.3 1022.0
2018-Feb-16 21:00N 38°36' E 000°18'2020.3 1021.7
2018-Feb-16 20:00N 38°54' E 000°30'2827.8 1021.3
2018-Feb-16 19:00N 39°18' E 000°48'2020.2 1021.1
2018-Feb-16 18:00N 39°36' E 001°00'2020.2 1021.4
2018-Feb-16 17:00N 39°54' E 001°12'2020.2 1021.2
2018-Feb-16 16:00N 40°12' E 001°24'2020.2 1021.3
2018-Feb-16 15:00N 40°30' E 001°36'2322.6 1021.8
2018-Feb-16 14:00N 40°48' E 001°54'2020.2 1022.0
2018-Feb-16 13:00N 41°06' E 002°06'1918.6 1022.8
2018-Feb-16 12:00N 41°24' E 002°12'6 1.5 1023.7
2018-Feb-16 08:00N 41°18' E 002°12'1514.8 1023.9
2018-Feb-16 07:00N 41°24' E 002°30'2221.6 1022.7
2018-Feb-16 06:00N 41°36' E 002°54'2221.6 1022.9
2018-Feb-16 05:00N 41°48' E 003°18'2221.5 1022.7
2018-Feb-16 04:00N 42°00' E 003°42'1918.8 1022.5
2018-Feb-16 03:00N 42°06' E 004°06'2525.3 1022.6
2018-Feb-16 02:00N 42°18' E 004°36'   1022.8
Track history (hours):
 
Tides and Currents Weather Stations Pressure Air Temp Water Temp Dewpoint Dewpoint Depression Visibility Wind Speed Wind Dir Waves Ship Positions

Callsign BAREU66 (name unknown)

Last reported at 2018-Feb-26 02:00 UTC. Time now 2018-Feb-26 03:16 UTC.
Position N 38°00' W 000°18'.

Barometer 1008.2 mb

Date/timePositionNaut miles runAvg speedWind from/ knotsBaromVisibWave heightAir tempDewpointWater temp
2018-Feb-26 02:00N 38°00' W 000°18'2322.9 1008.2
2018-Feb-26 01:00N 38°18' E 000°00'1918.5 1007.9
2018-Feb-26 00:00N 38°30' E 000°18'2020.3 1008.0
2018-Feb-25 23:00N 38°48' E 000°30'2625.7 1008.6
2018-Feb-25 22:00N 39°12' E 000°42'2020.3 1008.0
2018-Feb-25 21:00N 39°30' E 000°54'2020.2 1008.9
2018-Feb-25 20:00N 39°48' E 001°06'2322.7 1008.9
2018-Feb-25 19:00N 40°06' E 001°24'2020.2 1008.6
2018-Feb-25 18:00N 40°24' E 001°36'2020.2 1007.9
2018-Feb-25 17:00N 40°42' E 001°48'2020.2 1007.3
2018-Feb-25 16:00N 41°00' E 002°00'2020.1 1007.3
2018-Feb-25 15:00N 41°18' E 002°12'0 0.0 1008.4
2018-Feb-25 10:00N 41°18' E 002°12'1818.1 1009.3
2018-Feb-25 09:00N 41°30' E 002°30'1918.9 1009.2
2018-Feb-25 08:00N 41°36' E 002°54'2221.6 1008.8
2018-Feb-25 07:00N 41°48' E 003°18'2221.5 1009.0
2018-Feb-25 06:00N 42°00' E 003°42'2121.5 1008.5
2018-Feb-25 05:00N 42°12' E 004°06'2121.4 1007.6
2018-Feb-25 04:00N 42°24' E 004°30'2322.9 1006.5
2018-Feb-25 03:00N 42°30' E 005°00'2525.1 1005.9
2018-Feb-25 02:00N 42°42' E 005°30'1918.6 1005.5
2018-Feb-25 01:00N 42°48' E 005°54'2322.8 1006.3
2018-Feb-25 00:00N 42°54' E 006°24'2121.3 1006.7
2018-Feb-24 23:00N 43°06' E 006°48'2525.1 1006.7
2018-Feb-24 22:00N 43°24' E 007°12'2121.1 1006.9
2018-Feb-24 21:00N 43°36' E 007°36'2524.8 1006.5
2018-Feb-24 20:00N 43°48' E 008°06'1817.7 1007.1
2018-Feb-24 19:00N 44°00' E 008°24'2524.9 1007.3
2018-Feb-24 18:00N 44°18' E 008°48'7 0.7 1006.4
2018-Feb-24 07:00N 44°24' E 008°54'7 7.4 1006.2
2018-Feb-24 06:00N 44°18' E 009°00'2121.0 1003.3
2018-Feb-24 05:00N 44°06' E 008°36'1817.7 1001.4
2018-Feb-24 04:00N 43°54' E 008°18'2121.1 1001.2
2018-Feb-24 03:00N 43°42' E 007°54'1817.7 1003.6
2018-Feb-24 02:00N 43°30' E 007°36'2121.2 1004.5
2018-Feb-24 01:00N 43°18' E 007°12'2121.2
2018-Feb-24 00:00N 43°06' E 006°48'1414.5
2018-Feb-23 23:00N 43°00' E 006°30'2322.8 1005.0
2018-Feb-23 22:00N 42°54' E 006°00'1918.6 1005.5
2018-Feb-23 21:00N 42°48' E 005°36'1918.6 1006.2
2018-Feb-23 20:00N 42°42' E 005°12'1918.6 1005.5
2018-Feb-23 19:00N 42°36' E 004°48'2322.9 1005.5
2018-Feb-23 18:00N 42°30' E 004°18'1918.7 1005.7
2018-Feb-23 17:00N 42°24' E 003°54'1817.9 1005.4
2018-Feb-23 16:00N 42°12' E 003°36'2222.4 1004.4
2018-Feb-23 15:00N 41°54' E 003°18'1818.0 1005.3
2018-Feb-23 14:00N 41°42' E 003°00'2221.6 1006.5
2018-Feb-23 13:00N 41°30' E 002°36'2221.6 1006.6
2018-Feb-23 12:00N 41°18' E 002°12'6 1.2 1007.2
2018-Feb-23 07:00N 41°24' E 002°12'6 6.0 1007.2
2018-Feb-23 06:00N 41°18' E 002°12'2020.1 1006.5
2018-Feb-23 05:00N 41°00' E 002°00'2020.2 1006.4
2018-Feb-23 04:00N 40°42' E 001°48'2020.2 1005.8
2018-Feb-23 03:00N 40°24' E 001°36'1515.1 1005.9
2018-Feb-23 02:00N 40°12' E 001°24'2020.2 1006.6
2018-Feb-23 01:00N 39°54' E 001°12'1918.6 1006.3
2018-Feb-23 00:00N 39°36' E 001°06'2020.2 1006.6
2018-Feb-22 23:00N 39°18' E 000°54'2020.3 1006.7
2018-Feb-22 22:00N 39°00' E 000°42'2020.3 1006.6
2018-Feb-22 21:00N 38°42' E 000°30'1515.2 1006.1
2018-Feb-22 20:00N 38°30' E 000°18'2020.3 1004.9
2018-Feb-22 19:00N 38°12' E 000°06'2322.9 1004.9
2018-Feb-22 18:00N 37°54' W 000°12'1515.3 1005.0
2018-Feb-22 17:00N 37°42' W 000°24'2323.0 1005.2
2018-Feb-22 16:00N 37°24' W 000°42'1918.7 1005.4
2018-Feb-22 15:00N 37°12' W 001°00'1918.7 1005.5
2018-Feb-22 14:00N 37°00' W 001°18'1918.7 1006.2
2018-Feb-22 13:00N 36°48' W 001°36'2323.1 1007.3
2018-Feb-22 12:00N 36°30' W 001°54'2020.2 1008.1
2018-Feb-22 11:00N 36°24' W 002°18'2020.2 1008.6
2018-Feb-22 10:00N 36°18' W 002°42'1919.3 1008.9
2018-Feb-22 09:00N 36°18' W 003°06'2020.3 1009.6
2018-Feb-22 08:00N 36°12' W 003°30'1919.4 1007.8
2018-Feb-22 07:00N 36°12' W 003°54'2525.0 1008.0
2018-Feb-22 06:00N 36°06' W 004°24'1919.4 1007.1
2018-Feb-22 05:00N 36°06' W 004°48'2020.3 1007.6
2018-Feb-22 04:00N 36°00' W 005°12'16 2.3 1007.3
2018-Feb-21 21:00N 35°54' W 005°30'8 7.7 1008.2
2018-Feb-21 20:00N 36°00' W 005°24'1919.4 1006.9
2018-Feb-21 19:00N 36°00' W 005°00'2020.3 1006.5
2018-Feb-21 18:00N 36°06' W 004°36'2525.0 1005.4
2018-Feb-21 17:00N 36°12' W 004°06'1919.4 1004.5
2018-Feb-21 16:00N 36°12' W 003°42'2020.3 1004.5
2018-Feb-21 15:00N 36°18' W 003°18'2424.2 1004.8
2018-Feb-21 14:00N 36°18' W 002°48'2020.2 1005.0
2018-Feb-21 13:00N 36°24' W 002°24'2322.7 1005.5
2018-Feb-21 12:00N 36°36' W 002°00'2322.7 1006.4
2018-Feb-21 11:00N 36°48' W 001°36'1918.7 1006.8
2018-Feb-21 10:00N 37°00' W 001°18'2323.0 1007.0
2018-Feb-21 09:00N 37°18' W 001°00'2322.5 1006.8
2018-Feb-21 08:00N 37°30' W 000°36'2323.0 1005.9
2018-Feb-21 07:00N 37°48' W 000°18'2020.3 1006.4
2018-Feb-21 06:00N 38°06' W 000°06'2020.3 1007.6
2018-Feb-21 05:00N 38°24' E 000°06'2322.9 1007.7
2018-Feb-21 04:00N 38°42' E 000°24'1918.6 1008.2
2018-Feb-21 03:00N 39°00' E 000°30'2625.7 1008.9
2018-Feb-21 02:00N 39°24' E 000°42'1918.6 1009.9
2018-Feb-21 01:00N 39°42' E 000°48'2625.7 1010.0
2018-Feb-21 00:00N 40°06' E 001°00'2322.6 1010.0
2018-Feb-20 23:00N 40°24' E 001°18'2020.2 1008.9
2018-Feb-20 22:00N 40°42' E 001°30'2322.6 1007.2
2018-Feb-20 21:00N 41°00' E 001°48'2221.7 1009.4
2018-Feb-20 20:00N 41°12' E 002°12'8 1.9 1009.2
2018-Feb-20 16:00N 41°18' E 002°18'2221.6 1008.9
2018-Feb-20 15:00N 41°30' E 002°42'2221.6 1009.1
2018-Feb-20 14:00N 41°42' E 003°06'2222.4 1009.6
2018-Feb-20 13:00N 42°00' E 003°24'2222.4 1009.9
2018-Feb-20 12:00N 42°18' E 003°42'1918.7 1007.8
2018-Feb-20 11:00N 42°24' E 004°06'2525.2 1009.6
2018-Feb-20 10:00N 42°36' E 004°36'2322.9 1008.4
2018-Feb-20 09:00N 42°42' E 005°06'1817.6 1007.9
2018-Feb-20 08:00N 42°42' E 005°30'2322.8 1006.6
2018-Feb-20 07:00N 42°48' E 006°00'2525.0 1007.7
2018-Feb-20 06:00N 43°00' E 006°30'2121.2 1008.0
2018-Feb-20 05:00N 43°12' E 006°54'2121.2 1008.1
2018-Feb-20 04:00N 43°24' E 007°18'2121.1 1008.9
2018-Feb-20 03:00N 43°36' E 007°42'2121.1 1009.7
2018-Feb-20 02:00N 43°48' E 008°06'2525.0 1010.3
2018-Feb-20 01:00N 44°06' E 008°30'2121.0 1010.4
2018-Feb-20 00:00N 44°18' E 008°54'6 1.2 1011.5
2018-Feb-19 19:00N 44°24' E 008°54'1212.0 1013.5
2018-Feb-19 18:00N 44°12' E 008°54'2121.0 1011.6
2018-Feb-19 17:00N 44°00' E 008°30'2121.0 1011.3
2018-Feb-19 16:00N 43°48' E 008°06'2121.1 1012.2
2018-Feb-19 15:00N 43°36' E 007°42'1817.7 1013.4
2018-Feb-19 14:00N 43°24' E 007°24'2121.2 1013.8
2018-Feb-19 13:00N 43°12' E 007°00'2121.2 1014.2
2018-Feb-19 12:00N 43°00' E 006°36'2121.3 1015.0
2018-Feb-19 11:00N 42°48' E 006°12'1918.6 1016.6
2018-Feb-19 10:00N 42°42' E 005°48'2322.9 1016.7
2018-Feb-19 09:00N 42°36' E 005°18'2121.4 1016.6
2018-Feb-19 08:00N 42°24' E 004°54'2121.4 1016.5
2018-Feb-19 07:00N 42°12' E 004°30'2323.0 1016.1
2018-Feb-19 06:00N 42°06' E 004°00'2121.5 1015.9
2018-Feb-19 05:00N 41°54' E 003°36'1918.9 1016.1
2018-Feb-19 04:00N 41°48' E 003°12'2221.6 1016.8
2018-Feb-19 03:00N 41°36' E 002°48'2221.6 1016.7
2018-Feb-19 02:00N 41°24' E 002°24'11 2.7 1016.7
2018-Feb-18 22:00N 41°18' E 002°12'1312.8 1019.3
2018-Feb-18 21:00N 41°06' E 002°06'2020.2 1019.0
2018-Feb-18 20:00N 40°48' E 001°54'2020.2 1019.9
2018-Feb-18 19:00N 40°30' E 001°42'2322.6 1020.2
2018-Feb-18 18:00N 40°12' E 001°24'2020.2 1020.4
2018-Feb-18 17:00N 39°54' E 001°12'2625.7 1020.7
2018-Feb-18 16:00N 39°30' E 001°00'2020.3 1020.6
2018-Feb-18 15:00N 39°12' E 000°48'2020.3 1020.8
2018-Feb-18 14:00N 38°54' E 000°36'2020.3 1021.0
2018-Feb-18 13:00N 38°36' E 000°24'2322.9 1021.0
2018-Feb-18 12:00N 38°18' E 000°06'2020.3 1021.5
2018-Feb-18 11:00N 38°00' W 000°06'2322.9 1021.7
2018-Feb-18 10:00N 37°42' W 000°24'2323.0 1021.3
2018-Feb-18 09:00N 37°24' W 000°42'1918.7 1021.0
2018-Feb-18 08:00N 37°12' W 001°00'1918.7 1020.7
2018-Feb-18 07:00N 37°00' W 001°18'2323.1 1020.7
2018-Feb-18 06:00N 36°42' W 001°36'1918.8 1020.2
2018-Feb-18 05:00N 36°30' W 001°54'2322.7 1020.0
2018-Feb-18 04:00N 36°18' W 002°18'2424.2 1019.3
2018-Feb-18 03:00N 36°18' W 002°48'2020.3 1020.0
2018-Feb-18 02:00N 36°12' W 003°12'1919.4 1020.2
2018-Feb-18 01:00N 36°12' W 003°36'2525.0 1020.6
2018-Feb-18 00:00N 36°06' W 004°06'1919.4 1021.2
2018-Feb-17 23:00N 36°06' W 004°30'2525.0 1021.5
2018-Feb-17 22:00N 36°00' W 005°00'1919.4 1022.0
2018-Feb-17 21:00N 36°00' W 005°24'8 1.1 1022.9
2018-Feb-17 14:00N 35°54' W 005°30'1111.4 1022.9
2018-Feb-17 13:00N 36°00' W 005°18'2020.3 1021.0
2018-Feb-17 12:00N 36°06' W 004°54'1919.4 1021.0
2018-Feb-17 11:00N 36°06' W 004°30'2020.3 1021.2
2018-Feb-17 10:00N 36°12' W 004°06'1919.4 1020.9
2018-Feb-17 09:00N 36°12' W 003°42'2524.9 1020.9
2018-Feb-17 08:00N 36°18' W 003°12'1919.3 1021.5
2018-Feb-17 07:00N 36°18' W 002°48'2020.2 1021.1
2018-Feb-17 06:00N 36°24' W 002°24'2020.2 1020.9
2018-Feb-17 05:00N 36°30' W 002°00'2323.1 1020.8
2018-Feb-17 04:00N 36°48' W 001°42'1918.7 1020.4
2018-Feb-17 03:00N 37°00' W 001°24'2626.3 1020.7
2018-Feb-17 02:00N 37°18' W 001°00'1918.7 1021.0
2018-Feb-17 01:00N 37°30' W 000°42'2323.0 1021.3
2018-Feb-17 00:00N 37°48' W 000°24'2020.3 1021.5
2018-Feb-16 23:00N 38°06' W 000°12'1918.5 1021.9
2018-Feb-16 22:00N 38°18' E 000°06'2020.3 1022.0
2018-Feb-16 21:00N 38°36' E 000°18'2020.3 1021.7
2018-Feb-16 20:00N 38°54' E 000°30'2827.8 1021.3
2018-Feb-16 19:00N 39°18' E 000°48'2020.2 1021.1
2018-Feb-16 18:00N 39°36' E 001°00'2020.2 1021.4
2018-Feb-16 17:00N 39°54' E 001°12'2020.2 1021.2
2018-Feb-16 16:00N 40°12' E 001°24'2020.2 1021.3
2018-Feb-16 15:00N 40°30' E 001°36'2322.6 1021.8
2018-Feb-16 14:00N 40°48' E 001°54'2020.2 1022.0
2018-Feb-16 13:00N 41°06' E 002°06'1918.6 1022.8
2018-Feb-16 12:00N 41°24' E 002°12'6 1.5 1023.7
2018-Feb-16 08:00N 41°18' E 002°12'1514.8 1023.9
2018-Feb-16 07:00N 41°24' E 002°30'2221.6 1022.7
2018-Feb-16 06:00N 41°36' E 002°54'2221.6 1022.9
2018-Feb-16 05:00N 41°48' E 003°18'2221.5 1022.7
2018-Feb-16 04:00N 42°00' E 003°42'1918.8 1022.5
2018-Feb-16 03:00N 42°06' E 004°06'2525.3 1022.6
2018-Feb-16 02:00N 42°18' E 004°36'   1022.8

Dump ship's entire track history